Bucktail, Nebraska
Current Conditions -  °F | °C
As of 2:15 AM on Monday 24 Nov 2014 (Local Time) from KOGA Reporting Station
Clear Clear  
Wind Chill: 14°   Ceiling: Unl
Heat Index: 26°   Visibility: 10mi
Dew Point: 19°   Wind: 14mph
Humidity: 76%   Direction: 260°W
Pressure: 29.75"   Gusts: NA
Location:  41.2105°N, 101.376°W
Report Text: KOGA 240915Z AUTO 26012KT 10SM CLR M04/M07 A2975 RMK AO2 T10361072
Loading
Personal Weather Stations






























Interactive Weather Map New forecast layout! Learn more

10-Day Weather Forecast

Advertisements
Track Severe Weather on mobile